Weather observations for the past three days for
Eastern WV Regional Airport/Shepherd Field
Metric (Imperial)
Date Time (edt) Wind (kph) Vis. (km) Weather Sky Cond. Temperature (ºC) Relative Humidity Wind Chill (°C) Heat Index (°C) Pressure Precipitation (cm)
Air Dwpt 6 hour altimeter (cm) sea level (mb) 1 hr 3 hr 6 hr
Max. Min.
04 15:53 S 15 16.09 A Few Clouds FEW090 24.4 5 29% 25 75.64 1008.2
04 14:53 Calm 16.09 A Few Clouds FEW095 23.9 4.4 28% 25 75.72 1009.4
04 13:53 S 19 G 30 16.09 Mostly Cloudy BKN090 22.8 4.4 22.8 10 30% 75.79 1010.4
04 12:53 SW 19 G 31 16.09 Mostly Cloudy BKN085 22.2 4.4 31% 75.87 1011.3
04 11:53 S 11 G 30 16.09 Fair CLR 20.6 3.9 33% 75.92 1012.0
04 10:53 W 15 16.09 Fair CLR 18.9 2.8 34% 75.97 1012.6
04 09:53 SW 17 16.09 Fair CLR 16.7 1.1 35% 76 1013.1
04 08:53 S 13 16.09 Fair CLR 13.9 1.7 44% 76 1013.2
04 07:53 S 7 16.09 Mostly Cloudy BKN120 10.6 2.2 10.6 5.6 56% 76.05 1013.8
04 06:53 S 7 16.09 A Few Clouds FEW090 8.3 1.1 61% 7 76.05 1014.0
04 05:53 W 7 16.09 Overcast BKN070 OVC090 7.8 1.1 63% 7 76.07 1014.2
04 04:53 SW 6 16.09 Overcast OVC090 7.2 0.6 63% 76.07 1014.3
04 03:53 SW 6 16.09 Overcast OVC085 7.8 0 58% 76.07 1014.4
04 02:53 SW 6 16.09 Overcast OVC095 7.2 -0.6 58% 76.1 1014.6
04 01:53 SW 6 16.09 Fair CLR 6.1 -1.1 13.3 6.1 60% 76.12 1014.9
04 00:53 Calm 16.09 Fair CLR 8.3 -2.2 48% 76.15 1015.1
03 23:53 SW 6 16.09 Fair CLR 9.4 -2.8 43% 76.12 1015.1
03 22:53 S 6 16.09 Fair CLR 8.3 -1.1 52% 76.12 1014.9
03 21:53 Calm 16.09 Fair CLR 10 -3.3 39% 76.07 1014.5
03 20:53 SW 6 16.09 Fair CLR 12.2 -3.3 34% 76.07 1014.2
03 19:53 W 11 16.09 Fair CLR 13.3 -3.3 17.2 13.3 32% 76.05 1013.8
03 18:53 NW 20 16.09 Fair CLR 16.1 -5 23% 76.02 1013.4
03 17:53 W 11 G 41 16.09 Fair CLR 16.7 -4.4 23% 76.02 1013.6
03 16:53 W 13 16.09 A Few Clouds FEW085 16.7 -5 22% 76.02 1013.5
03 15:53 NW 20 G 31 16.09 Fair CLR 16.7 -4.4 23% 76.07 1014.1
03 14:53 W 33 G 44 16.09 A Few Clouds and Breezy FEW085 16.1 -5 23% 76.12 1014.9
03 13:53 NW 17 G 37 16.09 A Few Clouds FEW080 14.4 -5 15 6.7 26% 76.15 1015.4
03 12:53 W 26 G 35 16.09 Fair CLR 13.9 -3.9 29% 76.2 1016.2
03 11:53 NW 17 16.09 Mostly Cloudy BKN065 11.7 -3.9 34% 76.25 1016.9
03 10:53 NW 20 G 33 16.09 Mostly Cloudy BKN055 10 -3.9 38% 8 76.3 1017.3
03 09:53 NW 24 16.09 Fair CLR 9.4 -2.8 43% 7 76.3 1017.4
03 08:53 NW 22 G 33 16.09 Fair CLR 7.8 -2.8 47% 5 76.3 1017.5
03 07:53 NW 15 16.09 Fair CLR 6.7 -2.8 6.7 4.4 51% 4 76.3 1017.3
03 06:53 NW 13 16.09 Fair CLR 5 -2.8 57% 2 76.25 1016.6
03 05:53 NW 13 16.09 Fair CLR 5 -3.3 55% 2 76.17 1015.9
03 04:53 NW 17 16.09 Fair CLR 5 -3.3 55% 2 76.15 1015.3
03 03:53 NW 20 G 28 16.09 A Few Clouds FEW080 5.6 -1.7 60% 2 76.12 1015.1
03 02:53 NW 9 16.09 Overcast OVC080 6.1 -0.6 63% 4 76.1 1014.6
03 01:53 NW 9 16.09 Mostly Cloudy BKN080 6.1 0 11.1 5.6 65% 4 76.1 1014.6
03 00:53 NW 9 16.09 Partly Cloudy SCT090 6.1 -0.6 63% 4 76.1 1014.7
02 23:53 N 9 16.09 Fair CLR 6.7 -0.6 60% 5 76.1 1014.8
02 22:53 NW 15 16.09 A Few Clouds FEW095 7.8 -1.7 51% 6 76.1 1014.7
02 21:53 N 17 16.09 Overcast OVC090 8.9 -1.1 50% 7 76.1 1014.7
02 20:53 N 19 16.09 Overcast OVC090 10 -1.7 44% 8 76.05 1013.9
02 19:53 N 11 16.09 Overcast FEW070 OVC090 11.1 -2.2 13.3 11.1 40% 75.97 1012.9
02 18:53 N 11 16.09 Overcast OVC085 12.2 -1.7 38% 75.95 1012.5
02 17:53 N 15 16.09 Overcast OVC080 12.2 -1.1 40% 75.92 1012.4
02 16:53 Vrbl 11 16.09 Overcast OVC080 12.8 -1.7 37% 75.9 1012.0
02 15:53 N 19 G 28 16.09 Overcast BKN065 OVC080 12.8 -1.1 38% 75.92 1012.3
02 14:53 Calm 16.09 Mostly Cloudy SCT060 BKN080 11.7 -1.7 40% 76 1013.2
02 13:53 NW 13 16.09 Mostly Cloudy BKN075 13.3 -1.1 13.3 7.8 37% 76.05 1013.8
02 12:53 Vrbl 7 16.09 Mostly Cloudy BKN055 BKN070 12.2 -1.1 40% 76.05 1013.8
02 11:53 Vrbl 9 16.09 Mostly Cloudy SCT047 BKN070 11.7 -1.7 40% 76.1 1014.5
02 10:53 W 13 16.09 Partly Cloudy SCT043 10.6 0 48% 76.12 1014.8
02 09:53 NW 15 16.09 Fair CLR 10 0.6 52% 8 76.1 1014.7
02 08:53 N 19 16.09 Fair CLR 8.3 0 56% 6 76.12 1015.0
02 07:53 N 11 16.09 Fair CLR 7.8 0.6 10.6 6.7 61% 6 76.1 1014.7
02 06:53 NW 13 16.09 Fair CLR 6.7 0.6 65% 4 76.1 1014.7
02 05:53 NW 13 16.09 Fair CLR 6.7 0.6 65% 4 76.1 1014.5
02 04:53 NW 19 16.09 Fair CLR 7.8 1.1 63% 5 76.07 1014.1
02 03:53 NW 11 16.09 Fair CLR 7.8 1.1 63% 6 76.05 1013.7
02 02:53 NW 13 16.09 Fair CLR 8.9 2.2 63% 7 76.02 1013.4
02 01:53 W 20 16.09 Mostly Cloudy BKN100 10.6 1.7 14.4 10.6 54% 76.02 1013.3
02 00:53 NW 9 16.09 Overcast SCT039 BKN080 OVC100 11.7 3.9 59% 76 1013.2
01 23:53 NW 22 G 44 16.09 Overcast FEW060 OVC070 12.2 3.9 57% 75.97 1012.8
01 22:53 NW 13 16.09 Light Rain SCT060 OVC080 11.7 5.6 66% 75.95 1012.4
01 21:53 NW 20 16.09 Overcast SCT070 BKN100 OVC120 13.3 3.9 53% 75.92 1012.2
01 20:53 NW 7 16.09 Overcast SCT060 OVC100 13.3 7.2 67% 75.79 1010.4
01 19:53 NE 6 16.09 Light Rain BKN065 OVC085 13.3 7.8 18.9 13.3 70% 75.74 1009.8 0.03 0.03
01 18:53 Calm 16.09 Overcast BKN070 OVC090 15.6 5.6 52% 75.72 1009.4
01 17:53 NW 9 16.09 Light Rain SCT055 OVC070 16.1 3.9 44% 75.74 1009.9
01 16:53 S 19 16.09 Overcast OVC090 17.8 1.7 34% 75.69 1009.0
Date Time (edt) Wind (kph) Vis. (km) Weather Sky Cond. Air Dwpt Max. Min. Relative Humidity Wind Chill (°C) Heat Index (°C) altimeter (cm) sea level (mb) 1 hr 3 hr 6 hr
6 hour
Temperature (ºC) Pressure Precipitation (cm)